sensor_id;sensor_type;location;lat;lon;timestamp;P1;durP1;ratioP1;P2;durP2;ratioP2
25731;SDS011;13585;50.864;4.406;2023-07-31T00:00:11;8.60;;;3.10;;
25731;SDS011;13585;50.864;4.406;2023-07-31T00:02:37;6.20;;;2.90;;
25731;SDS011;13585;50.864;4.406;2023-07-31T00:05:03;5.40;;;2.92;;
25731;SDS011;13585;50.864;4.406;2023-07-31T00:07:29;6.03;;;2.95;;
25731;SDS011;13585;50.864;4.406;2023-07-31T00:09:55;6.13;;;3.00;;
25731;SDS011;13585;50.864;4.406;2023-07-31T00:12:21;7.95;;;3.60;;
25731;SDS011;13585;50.864;4.406;2023-07-31T00:14:47;4.28;;;2.63;;
25731;SDS011;13585;50.864;4.406;2023-07-31T00:17:13;6.15;;;2.88;;
25731;SDS011;13585;50.864;4.406;2023-07-31T00:19:39;5.13;;;2.78;;
25731;SDS011;13585;50.864;4.406;2023-07-31T00:22:04;6.25;;;2.70;;
25731;SDS011;13585;50.864;4.406;2023-07-31T00:24:30;6.13;;;2.92;;
25731;SDS011;13585;50.864;4.406;2023-07-31T00:26:56;7.30;;;3.33;;
25731;SDS011;13585;50.864;4.406;2023-07-31T00:29:21;7.60;;;3.28;;
25731;SDS011;13585;50.864;4.406;2023-07-31T00:31:47;6.55;;;2.83;;
25731;SDS011;13585;50.864;4.406;2023-07-31T00:34:13;7.40;;;3.00;;
25731;SDS011;13585;50.864;4.406;2023-07-31T00:36:38;6.88;;;3.22;;
25731;SDS011;13585;50.864;4.406;2023-07-31T00:39:04;7.20;;;3.30;;
25731;SDS011;13585;50.864;4.406;2023-07-31T00:41:30;6.72;;;3.22;;
25731;SDS011;13585;50.864;4.406;2023-07-31T00:43:55;7.63;;;3.38;;
25731;SDS011;13585;50.864;4.406;2023-07-31T00:46:21;4.63;;;2.88;;
25731;SDS011;13585;50.864;4.406;2023-07-31T00:48:47;5.18;;;2.78;;
25731;SDS011;13585;50.864;4.406;2023-07-31T00:51:13;8.18;;;3.20;;
25731;SDS011;13585;50.864;4.406;2023-07-31T00:53:39;9.15;;;3.42;;
25731;SDS011;13585;50.864;4.406;2023-07-31T00:56:05;8.45;;;3.50;;
25731;SDS011;13585;50.864;4.406;2023-07-31T00:58:31;6.28;;;3.00;;
25731;SDS011;13585;50.864;4.406;2023-07-31T01:00:57;6.93;;;3.22;;
25731;SDS011;13585;50.864;4.406;2023-07-31T01:03:23;7.25;;;3.40;;
25731;SDS011;13585;50.864;4.406;2023-07-31T01:08:32;6.80;;;3.38;;
25731;SDS011;13585;50.864;4.406;2023-07-31T01:11:19;9.30;;;3.60;;
25731;SDS011;13585;50.864;4.406;2023-07-31T01:13:53;5.85;;;2.97;;
25731;SDS011;13585;50.864;4.406;2023-07-31T01:16:20;6.00;;;3.00;;
25731;SDS011;13585;50.864;4.406;2023-07-31T01:18:46;7.43;;;3.20;;
25731;SDS011;13585;50.864;4.406;2023-07-31T01:26:47;6.57;;;3.75;;
25731;SDS011;13585;50.864;4.406;2023-07-31T01:29:32;8.15;;;3.50;;
25731;SDS011;13585;50.864;4.406;2023-07-31T01:32:02;7.25;;;2.75;;
25731;SDS011;13585;50.864;4.406;2023-07-31T01:34:29;5.72;;;2.72;;
25731;SDS011;13585;50.864;4.406;2023-07-31T01:36:57;5.15;;;2.80;;
25731;SDS011;13585;50.864;4.406;2023-07-31T01:39:25;8.38;;;3.42;;
25731;SDS011;13585;50.864;4.406;2023-07-31T01:41:51;6.82;;;3.30;;
25731;SDS011;13585;50.864;4.406;2023-07-31T01:44:17;6.70;;;3.20;;
25731;SDS011;13585;50.864;4.406;2023-07-31T01:46:42;9.85;;;3.78;;
25731;SDS011;13585;50.864;4.406;2023-07-31T01:49:08;5.63;;;3.05;;
25731;SDS011;13585;50.864;4.406;2023-07-31T01:51:33;8.13;;;3.28;;
25731;SDS011;13585;50.864;4.406;2023-07-31T01:54:02;7.43;;;3.20;;
25731;SDS011;13585;50.864;4.406;2023-07-31T01:56:28;5.15;;;3.05;;
25731;SDS011;13585;50.864;4.406;2023-07-31T01:58:53;7.35;;;3.10;;
25731;SDS011;13585;50.864;4.406;2023-07-31T02:01:19;5.57;;;3.22;;
25731;SDS011;13585;50.864;4.406;2023-07-31T02:03:45;6.05;;;3.00;;
25731;SDS011;13585;50.864;4.406;2023-07-31T02:06:11;7.32;;;3.55;;
25731;SDS011;13585;50.864;4.406;2023-07-31T02:08:36;8.77;;;3.20;;
25731;SDS011;13585;50.864;4.406;2023-07-31T02:11:03;5.78;;;3.10;;
25731;SDS011;13585;50.864;4.406;2023-07-31T02:13:29;6.28;;;3.10;;
25731;SDS011;13585;50.864;4.406;2023-07-31T02:15:54;7.18;;;3.40;;
25731;SDS011;13585;50.864;4.406;2023-07-31T02:18:20;6.15;;;3.28;;
25731;SDS011;13585;50.864;4.406;2023-07-31T02:20:50;8.60;;;3.72;;
25731;SDS011;13585;50.864;4.406;2023-07-31T02:23:17;6.00;;;2.97;;
25731;SDS011;13585;50.864;4.406;2023-07-31T02:25:45;7.20;;;3.28;;
25731;SDS011;13585;50.864;4.406;2023-07-31T02:28:11;8.45;;;3.22;;
25731;SDS011;13585;50.864;4.406;2023-07-31T02:30:36;7.75;;;3.03;;
25731;SDS011;13585;50.864;4.406;2023-07-31T02:33:03;6.57;;;3.25;;
25731;SDS011;13585;50.864;4.406;2023-07-31T02:35:30;5.15;;;2.88;;
25731;SDS011;13585;50.864;4.406;2023-07-31T02:37:56;6.80;;;3.45;;
25731;SDS011;13585;50.864;4.406;2023-07-31T02:40:21;6.07;;;2.90;;
25731;SDS011;13585;50.864;4.406;2023-07-31T02:42:47;5.13;;;2.78;;
25731;SDS011;13585;50.864;4.406;2023-07-31T02:45:13;7.20;;;3.10;;
25731;SDS011;13585;50.864;4.406;2023-07-31T02:47:38;6.10;;;3.20;;
25731;SDS011;13585;50.864;4.406;2023-07-31T02:50:04;6.15;;;3.38;;
25731;SDS011;13585;50.864;4.406;2023-07-31T02:52:30;5.53;;;2.97;;
25731;SDS011;13585;50.864;4.406;2023-07-31T02:54:57;5.10;;;3.15;;
25731;SDS011;13585;50.864;4.406;2023-07-31T02:57:23;5.00;;;3.17;;
25731;SDS011;13585;50.864;4.406;2023-07-31T02:59:48;5.78;;;3.13;;
25731;SDS011;13585;50.864;4.406;2023-07-31T03:02:14;4.45;;;2.58;;
25731;SDS011;13585;50.864;4.406;2023-07-31T03:04:39;5.22;;;3.00;;
25731;SDS011;13585;50.864;4.406;2023-07-31T03:07:05;5.82;;;2.97;;
25731;SDS011;13585;50.864;4.406;2023-07-31T03:09:31;5.90;;;3.22;;
25731;SDS011;13585;50.864;4.406;2023-07-31T03:11:56;5.95;;;3.40;;
25731;SDS011;13585;50.864;4.406;2023-07-31T03:14:22;6.55;;;2.95;;
25731;SDS011;13585;50.864;4.406;2023-07-31T03:16:48;5.28;;;2.80;;
25731;SDS011;13585;50.864;4.406;2023-07-31T03:19:14;4.88;;;3.00;;
25731;SDS011;13585;50.864;4.406;2023-07-31T03:21:40;5.70;;;3.17;;
25731;SDS011;13585;50.864;4.406;2023-07-31T03:24:05;6.45;;;3.15;;
25731;SDS011;13585;50.864;4.406;2023-07-31T03:26:31;4.15;;;3.03;;
25731;SDS011;13585;50.864;4.406;2023-07-31T03:28:57;5.45;;;2.88;;
25731;SDS011;13585;50.864;4.406;2023-07-31T03:31:23;5.88;;;2.97;;
25731;SDS011;13585;50.864;4.406;2023-07-31T03:33:48;3.67;;;2.60;;
25731;SDS011;13585;50.864;4.406;2023-07-31T03:36:14;4.20;;;2.90;;
25731;SDS011;13585;50.864;4.406;2023-07-31T03:38:40;4.75;;;2.72;;
25731;SDS011;13585;50.864;4.406;2023-07-31T03:41:05;7.53;;;3.25;;
25731;SDS011;13585;50.864;4.406;2023-07-31T03:43:31;4.60;;;3.13;;
25731;SDS011;13585;50.864;4.406;2023-07-31T03:45:59;5.38;;;2.95;;
25731;SDS011;13585;50.864;4.406;2023-07-31T03:48:27;6.28;;;2.92;;
25731;SDS011;13585;50.864;4.406;2023-07-31T03:50:53;4.35;;;2.72;;
25731;SDS011;13585;50.864;4.406;2023-07-31T03:53:19;5.15;;;3.15;;
25731;SDS011;13585;50.864;4.406;2023-07-31T03:55:45;5.53;;;3.05;;
25731;SDS011;13585;50.864;4.406;2023-07-31T03:58:10;5.10;;;2.95;;
25731;SDS011;13585;50.864;4.406;2023-07-31T04:00:36;4.53;;;2.78;;
25731;SDS011;13585;50.864;4.406;2023-07-31T04:03:02;5.70;;;2.80;;
25731;SDS011;13585;50.864;4.406;2023-07-31T04:05:29;4.45;;;2.75;;
25731;SDS011;13585;50.864;4.406;2023-07-31T04:07:56;4.32;;;2.78;;
25731;SDS011;13585;50.864;4.406;2023-07-31T04:10:22;5.10;;;2.90;;
25731;SDS011;13585;50.864;4.406;2023-07-31T04:12:47;4.25;;;2.97;;
25731;SDS011;13585;50.864;4.406;2023-07-31T04:15:13;5.70;;;2.65;;
25731;SDS011;13585;50.864;4.406;2023-07-31T04:17:39;4.60;;;2.60;;
25731;SDS011;13585;50.864;4.406;2023-07-31T04:20:05;4.72;;;2.78;;
25731;SDS011;13585;50.864;4.406;2023-07-31T04:22:31;4.13;;;2.45;;
25731;SDS011;13585;50.864;4.406;2023-07-31T04:24:56;6.38;;;2.70;;
25731;SDS011;13585;50.864;4.406;2023-07-31T04:27:22;4.45;;;2.63;;
25731;SDS011;13585;50.864;4.406;2023-07-31T04:29:48;5.63;;;2.83;;
25731;SDS011;13585;50.864;4.406;2023-07-31T04:32:13;4.55;;;2.78;;
25731;SDS011;13585;50.864;4.406;2023-07-31T04:34:41;5.35;;;3.08;;
25731;SDS011;13585;50.864;4.406;2023-07-31T04:37:07;5.35;;;2.60;;
25731;SDS011;13585;50.864;4.406;2023-07-31T04:39:33;3.72;;;2.60;;
25731;SDS011;13585;50.864;4.406;2023-07-31T04:41:58;5.15;;;2.70;;
25731;SDS011;13585;50.864;4.406;2023-07-31T04:44:24;4.75;;;2.72;;
25731;SDS011;13585;50.864;4.406;2023-07-31T04:46:49;4.03;;;2.80;;
25731;SDS011;13585;50.864;4.406;2023-07-31T04:49:15;4.95;;;2.63;;
25731;SDS011;13585;50.864;4.406;2023-07-31T04:51:40;5.10;;;2.70;;
25731;SDS011;13585;50.864;4.406;2023-07-31T04:54:06;5.22;;;2.38;;
25731;SDS011;13585;50.864;4.406;2023-07-31T04:56:32;5.25;;;2.92;;
25731;SDS011;13585;50.864;4.406;2023-07-31T04:58:57;3.95;;;2.70;;
25731;SDS011;13585;50.864;4.406;2023-07-31T05:01:23;3.42;;;2.50;;
25731;SDS011;13585;50.864;4.406;2023-07-31T05:03:48;4.70;;;3.08;;
25731;SDS011;13585;50.864;4.406;2023-07-31T05:06:14;4.55;;;2.50;;
25731;SDS011;13585;50.864;4.406;2023-07-31T05:08:40;4.25;;;2.75;;
25731;SDS011;13585;50.864;4.406;2023-07-31T05:11:06;4.30;;;2.63;;
25731;SDS011;13585;50.864;4.406;2023-07-31T05:13:31;3.70;;;2.50;;
25731;SDS011;13585;50.864;4.406;2023-07-31T05:15:57;4.63;;;2.60;;
25731;SDS011;13585;50.864;4.406;2023-07-31T05:18:22;5.10;;;2.80;;
25731;SDS011;13585;50.864;4.406;2023-07-31T05:20:48;3.67;;;2.60;;
25731;SDS011;13585;50.864;4.406;2023-07-31T05:23:14;6.50;;;2.70;;
25731;SDS011;13585;50.864;4.406;2023-07-31T05:25:39;6.80;;;2.90;;
25731;SDS011;13585;50.864;4.406;2023-07-31T05:28:05;3.80;;;2.60;;
25731;SDS011;13585;50.864;4.406;2023-07-31T05:30:31;3.97;;;2.25;;
25731;SDS011;13585;50.864;4.406;2023-07-31T05:32:56;3.88;;;2.30;;
25731;SDS011;13585;50.864;4.406;2023-07-31T05:35:22;5.72;;;2.65;;
25731;SDS011;13585;50.864;4.406;2023-07-31T05:37:48;5.82;;;2.50;;
25731;SDS011;13585;50.864;4.406;2023-07-31T05:40:13;5.20;;;2.72;;
25731;SDS011;13585;50.864;4.406;2023-07-31T05:42:39;5.07;;;2.50;;
25731;SDS011;13585;50.864;4.406;2023-07-31T05:45:06;4.55;;;2.45;;
25731;SDS011;13585;50.864;4.406;2023-07-31T05:47:32;4.57;;;2.55;;
25731;SDS011;13585;50.864;4.406;2023-07-31T05:49:58;4.78;;;2.70;;
25731;SDS011;13585;50.864;4.406;2023-07-31T05:52:24;4.95;;;2.50;;
25731;SDS011;13585;50.864;4.406;2023-07-31T05:54:49;3.78;;;2.45;;
25731;SDS011;13585;50.864;4.406;2023-07-31T05:57:15;4.32;;;2.47;;
25731;SDS011;13585;50.864;4.406;2023-07-31T05:59:41;4.65;;;2.50;;
25731;SDS011;13585;50.864;4.406;2023-07-31T06:02:06;4.30;;;2.33;;
25731;SDS011;13585;50.864;4.406;2023-07-31T06:04:32;3.85;;;2.25;;
25731;SDS011;13585;50.864;4.406;2023-07-31T06:06:58;5.43;;;2.75;;
25731;SDS011;13585;50.864;4.406;2023-07-31T06:09:24;4.50;;;2.33;;
25731;SDS011;13585;50.864;4.406;2023-07-31T06:11:50;3.35;;;2.25;;
25731;SDS011;13585;50.864;4.406;2023-07-31T06:14:16;3.80;;;2.53;;
25731;SDS011;13585;50.864;4.406;2023-07-31T06:16:42;2.75;;;2.22;;
25731;SDS011;13585;50.864;4.406;2023-07-31T06:19:09;3.13;;;2.28;;
25731;SDS011;13585;50.864;4.406;2023-07-31T06:21:35;4.32;;;2.60;;
25731;SDS011;13585;50.864;4.406;2023-07-31T06:24:02;3.70;;;1.92;;
25731;SDS011;13585;50.864;4.406;2023-07-31T06:26:28;5.32;;;2.38;;
25731;SDS011;13585;50.864;4.406;2023-07-31T06:28:54;3.92;;;2.30;;
25731;SDS011;13585;50.864;4.406;2023-07-31T06:31:20;4.05;;;2.50;;
25731;SDS011;13585;50.864;4.406;2023-07-31T06:33:48;5.20;;;2.58;;
25731;SDS011;13585;50.864;4.406;2023-07-31T06:36:14;4.78;;;2.30;;
25731;SDS011;13585;50.864;4.406;2023-07-31T06:38:40;5.80;;;2.63;;
25731;SDS011;13585;50.864;4.406;2023-07-31T06:41:05;5.28;;;2.35;;
25731;SDS011;13585;50.864;4.406;2023-07-31T06:43:31;4.00;;;2.20;;
25731;SDS011;13585;50.864;4.406;2023-07-31T06:45:56;4.28;;;2.65;;
25731;SDS011;13585;50.864;4.406;2023-07-31T06:48:22;4.35;;;2.30;;
25731;SDS011;13585;50.864;4.406;2023-07-31T06:50:47;5.45;;;2.92;;
25731;SDS011;13585;50.864;4.406;2023-07-31T06:53:13;6.38;;;2.42;;
25731;SDS011;13585;50.864;4.406;2023-07-31T06:55:39;3.47;;;2.20;;
25731;SDS011;13585;50.864;4.406;2023-07-31T06:58:04;5.00;;;2.03;;
25731;SDS011;13585;50.864;4.406;2023-07-31T07:00:30;4.10;;;2.28;;
25731;SDS011;13585;50.864;4.406;2023-07-31T07:02:56;4.00;;;2.38;;
25731;SDS011;13585;50.864;4.406;2023-07-31T07:05:21;4.72;;;2.50;;
25731;SDS011;13585;50.864;4.406;2023-07-31T07:07:48;3.38;;;2.20;;
25731;SDS011;13585;50.864;4.406;2023-07-31T07:10:16;4.35;;;2.42;;
25731;SDS011;13585;50.864;4.406;2023-07-31T07:12:41;3.53;;;2.25;;
25731;SDS011;13585;50.864;4.406;2023-07-31T07:15:07;3.60;;;2.38;;
25731;SDS011;13585;50.864;4.406;2023-07-31T07:17:33;3.38;;;2.30;;
25731;SDS011;13585;50.864;4.406;2023-07-31T07:19:59;5.55;;;2.95;;
25731;SDS011;13585;50.864;4.406;2023-07-31T07:22:25;5.72;;;2.47;;
25731;SDS011;13585;50.864;4.406;2023-07-31T07:24:52;3.33;;;2.47;;
25731;SDS011;13585;50.864;4.406;2023-07-31T07:27:18;5.28;;;2.40;;
25731;SDS011;13585;50.864;4.406;2023-07-31T07:29:45;5.20;;;2.65;;
25731;SDS011;13585;50.864;4.406;2023-07-31T07:32:12;3.95;;;2.45;;
25731;SDS011;13585;50.864;4.406;2023-07-31T07:34:38;4.28;;;2.20;;
25731;SDS011;13585;50.864;4.406;2023-07-31T07:37:03;4.57;;;2.20;;
25731;SDS011;13585;50.864;4.406;2023-07-31T07:39:29;5.13;;;2.58;;
25731;SDS011;13585;50.864;4.406;2023-07-31T07:41:55;6.93;;;2.30;;
25731;SDS011;13585;50.864;4.406;2023-07-31T07:44:20;4.28;;;2.45;;
25731;SDS011;13585;50.864;4.406;2023-07-31T07:46:46;3.72;;;2.20;;
25731;SDS011;13585;50.864;4.406;2023-07-31T07:49:12;4.00;;;2.17;;
25731;SDS011;13585;50.864;4.406;2023-07-31T07:51:38;3.03;;;2.17;;
25731;SDS011;13585;50.864;4.406;2023-07-31T07:54:03;4.00;;;2.30;;
25731;SDS011;13585;50.864;4.406;2023-07-31T07:56:29;5.53;;;2.17;;
25731;SDS011;13585;50.864;4.406;2023-07-31T07:58:54;3.30;;;2.35;;
25731;SDS011;13585;50.864;4.406;2023-07-31T08:01:20;3.42;;;2.22;;
25731;SDS011;13585;50.864;4.406;2023-07-31T08:03:46;6.53;;;2.00;;
25731;SDS011;13585;50.864;4.406;2023-07-31T08:06:12;3.83;;;2.35;;
25731;SDS011;13585;50.864;4.406;2023-07-31T08:08:39;3.60;;;2.38;;
25731;SDS011;13585;50.864;4.406;2023-07-31T08:11:04;2.88;;;1.90;;
25731;SDS011;13585;50.864;4.406;2023-07-31T08:13:30;3.50;;;1.98;;
25731;SDS011;13585;50.864;4.406;2023-07-31T08:15:56;3.78;;;2.05;;
25731;SDS011;13585;50.864;4.406;2023-07-31T08:18:21;3.83;;;2.33;;
25731;SDS011;13585;50.864;4.406;2023-07-31T08:20:47;3.85;;;2.38;;
25731;SDS011;13585;50.864;4.406;2023-07-31T08:23:13;4.28;;;2.67;;
25731;SDS011;13585;50.864;4.406;2023-07-31T08:25:42;4.03;;;2.10;;
25731;SDS011;13585;50.864;4.406;2023-07-31T08:28:07;3.38;;;1.92;;
25731;SDS011;13585;50.864;4.406;2023-07-31T08:30:33;4.20;;;2.50;;
25731;SDS011;13585;50.864;4.406;2023-07-31T08:32:59;3.47;;;2.33;;
25731;SDS011;13585;50.864;4.406;2023-07-31T08:35:25;5.97;;;2.15;;
25731;SDS011;13585;50.864;4.406;2023-07-31T08:37:53;4.22;;;2.40;;
25731;SDS011;13585;50.864;4.406;2023-07-31T08:40:18;3.30;;;2.28;;
25731;SDS011;13585;50.864;4.406;2023-07-31T08:42:44;5.47;;;2.20;;
25731;SDS011;13585;50.864;4.406;2023-07-31T08:45:17;4.35;;;2.45;;
25731;SDS011;13585;50.864;4.406;2023-07-31T08:47:47;3.55;;;2.30;;
25731;SDS011;13585;50.864;4.406;2023-07-31T08:50:15;3.33;;;2.05;;
25731;SDS011;13585;50.864;4.406;2023-07-31T08:52:42;3.95;;;2.30;;
25731;SDS011;13585;50.864;4.406;2023-07-31T08:55:08;8.93;;;2.42;;
25731;SDS011;13585;50.864;4.406;2023-07-31T08:57:35;4.55;;;2.30;;
25731;SDS011;13585;50.864;4.406;2023-07-31T09:00:03;9.88;;;2.60;;
25731;SDS011;13585;50.864;4.406;2023-07-31T09:05:35;11.35;;;2.40;;
25731;SDS011;13585;50.864;4.406;2023-07-31T09:08:04;9.18;;;2.85;;
25731;SDS011;13585;50.864;4.406;2023-07-31T09:10:30;7.32;;;2.10;;
25731;SDS011;13585;50.864;4.406;2023-07-31T09:12:56;4.70;;;2.45;;
25731;SDS011;13585;50.864;4.406;2023-07-31T09:15:23;4.75;;;2.40;;
25731;SDS011;13585;50.864;4.406;2023-07-31T09:17:50;6.85;;;2.65;;
25731;SDS011;13585;50.864;4.406;2023-07-31T09:20:26;7.35;;;2.63;;
25731;SDS011;13585;50.864;4.406;2023-07-31T09:22:51;5.85;;;2.33;;
25731;SDS011;13585;50.864;4.406;2023-07-31T09:25:24;8.75;;;2.80;;
25731;SDS011;13585;50.864;4.406;2023-07-31T09:27:52;6.95;;;2.60;;
25731;SDS011;13585;50.864;4.406;2023-07-31T09:30:22;6.35;;;2.47;;
25731;SDS011;13585;50.864;4.406;2023-07-31T16:42:58;2.92;;;1.67;;
25731;SDS011;13585;50.864;4.406;2023-07-31T16:45:24;2.88;;;1.58;;
25731;SDS011;13585;50.864;4.406;2023-07-31T16:47:50;2.78;;;1.70;;
25731;SDS011;13585;50.864;4.406;2023-07-31T16:50:18;3.00;;;1.73;;
25731;SDS011;13585;50.864;4.406;2023-07-31T16:52:44;2.78;;;1.73;;
25731;SDS011;13585;50.864;4.406;2023-07-31T16:55:10;2.45;;;1.50;;
25731;SDS011;13585;50.864;4.406;2023-07-31T16:57:35;2.85;;;1.30;;
25731;SDS011;13585;50.864;4.406;2023-07-31T17:00:01;2.22;;;1.25;;
25731;SDS011;13585;50.864;4.406;2023-07-31T17:02:27;3.35;;;1.42;;
25731;SDS011;13585;50.864;4.406;2023-07-31T17:04:53;4.57;;;1.40;;
25731;SDS011;13585;50.864;4.406;2023-07-31T17:07:18;2.33;;;1.30;;
25731;SDS011;13585;50.864;4.406;2023-07-31T17:09:46;3.03;;;1.55;;
25731;SDS011;13585;50.864;4.406;2023-07-31T17:12:12;7.30;;;1.67;;
25731;SDS011;13585;50.864;4.406;2023-07-31T17:14:37;2.67;;;1.48;;
25731;SDS011;13585;50.864;4.406;2023-07-31T17:17:03;3.95;;;1.40;;
25731;SDS011;13585;50.864;4.406;2023-07-31T17:19:29;1.73;;;1.25;;
25731;SDS011;13585;50.864;4.406;2023-07-31T17:21:54;5.57;;;1.52;;
25731;SDS011;13585;50.864;4.406;2023-07-31T17:24:20;2.85;;;1.60;;
25731;SDS011;13585;50.864;4.406;2023-07-31T17:26:46;2.50;;;1.40;;
25731;SDS011;13585;50.864;4.406;2023-07-31T17:29:13;2.20;;;1.40;;
25731;SDS011;13585;50.864;4.406;2023-07-31T17:31:41;4.13;;;1.70;;
25731;SDS011;13585;50.864;4.406;2023-07-31T17:34:07;4.22;;;1.80;;
25731;SDS011;13585;50.864;4.406;2023-07-31T17:36:32;4.20;;;1.50;;
25731;SDS011;13585;50.864;4.406;2023-07-31T17:38:58;4.10;;;1.50;;
25731;SDS011;13585;50.864;4.406;2023-07-31T17:41:24;3.03;;;1.60;;
25731;SDS011;13585;50.864;4.406;2023-07-31T17:43:52;2.70;;;1.30;;
25731;SDS011;13585;50.864;4.406;2023-07-31T17:46:18;2.90;;;1.70;;
25731;SDS011;13585;50.864;4.406;2023-07-31T17:48:43;3.60;;;1.70;;
25731;SDS011;13585;50.864;4.406;2023-07-31T17:51:10;2.75;;;1.60;;
25731;SDS011;13585;50.864;4.406;2023-07-31T17:53:35;4.32;;;1.83;;
25731;SDS011;13585;50.864;4.406;2023-07-31T17:56:01;2.05;;;1.30;;
25731;SDS011;13585;50.864;4.406;2023-07-31T17:58:26;2.58;;;1.60;;
25731;SDS011;13585;50.864;4.406;2023-07-31T18:00:52;2.55;;;1.63;;
25731;SDS011;13585;50.864;4.406;2023-07-31T18:03:18;2.40;;;1.50;;
25731;SDS011;13585;50.864;4.406;2023-07-31T18:05:43;2.55;;;1.30;;
25731;SDS011;13585;50.864;4.406;2023-07-31T18:08:09;2.15;;;1.50;;
25731;SDS011;13585;50.864;4.406;2023-07-31T18:10:35;2.42;;;1.40;;
25731;SDS011;13585;50.864;4.406;2023-07-31T18:13:08;3.38;;;1.60;;
25731;SDS011;13585;50.864;4.406;2023-07-31T18:15:34;3.92;;;1.80;;
25731;SDS011;13585;50.864;4.406;2023-07-31T18:17:59;2.85;;;1.42;;
25731;SDS011;13585;50.864;4.406;2023-07-31T18:20:25;2.33;;;1.33;;
25731;SDS011;13585;50.864;4.406;2023-07-31T18:22:50;3.47;;;1.38;;
25731;SDS011;13585;50.864;4.406;2023-07-31T18:25:16;2.25;;;1.30;;
25731;SDS011;13585;50.864;4.406;2023-07-31T18:27:44;2.10;;;1.00;;
25731;SDS011;13585;50.864;4.406;2023-07-31T18:30:11;1.77;;;1.13;;
25731;SDS011;13585;50.864;4.406;2023-07-31T18:32:37;3.20;;;1.23;;
25731;SDS011;13585;50.864;4.406;2023-07-31T18:35:03;1.80;;;1.15;;
25731;SDS011;13585;50.864;4.406;2023-07-31T18:37:29;1.75;;;1.30;;
25731;SDS011;13585;50.864;4.406;2023-07-31T18:39:54;5.00;;;1.27;;
25731;SDS011;13585;50.864;4.406;2023-07-31T18:42:20;1.35;;;1.10;;
25731;SDS011;13585;50.864;4.406;2023-07-31T18:44:46;2.78;;;1.30;;
25731;SDS011;13585;50.864;4.406;2023-07-31T18:47:12;1.95;;;1.10;;
25731;SDS011;13585;50.864;4.406;2023-07-31T18:49:38;2.00;;;1.23;;
25731;SDS011;13585;50.864;4.406;2023-07-31T18:52:03;2.55;;;1.30;;
25731;SDS011;13585;50.864;4.406;2023-07-31T18:54:29;1.40;;;1.00;;
25731;SDS011;13585;50.864;4.406;2023-07-31T18:56:55;1.88;;;1.17;;
25731;SDS011;13585;50.864;4.406;2023-07-31T18:59:21;1.70;;;1.20;;
25731;SDS011;13585;50.864;4.406;2023-07-31T19:01:46;1.95;;;1.20;;
25731;SDS011;13585;50.864;4.406;2023-07-31T19:04:12;2.05;;;1.20;;
25731;SDS011;13585;50.864;4.406;2023-07-31T19:06:38;2.33;;;1.20;;
25731;SDS011;13585;50.864;4.406;2023-07-31T19:09:05;1.52;;;0.93;;
25731;SDS011;13585;50.864;4.406;2023-07-31T19:11:31;1.35;;;0.95;;
25731;SDS011;13585;50.864;4.406;2023-07-31T19:13:57;1.42;;;1.13;;
25731;SDS011;13585;50.864;4.406;2023-07-31T19:16:24;4.70;;;1.02;;
25731;SDS011;13585;50.864;4.406;2023-07-31T19:18:50;1.60;;;1.08;;
25731;SDS011;13585;50.864;4.406;2023-07-31T19:21:15;1.20;;;1.10;;
25731;SDS011;13585;50.864;4.406;2023-07-31T19:23:41;1.45;;;1.02;;
25731;SDS011;13585;50.864;4.406;2023-07-31T19:26:06;2.83;;;1.10;;
25731;SDS011;13585;50.864;4.406;2023-07-31T19:28:33;1.48;;;1.08;;
25731;SDS011;13585;50.864;4.406;2023-07-31T19:30:59;1.48;;;1.20;;
25731;SDS011;13585;50.864;4.406;2023-07-31T19:33:24;3.40;;;1.27;;
25731;SDS011;13585;50.864;4.406;2023-07-31T19:35:56;1.60;;;1.13;;
25731;SDS011;13585;50.864;4.406;2023-07-31T19:38:22;2.60;;;1.13;;
25731;SDS011;13585;50.864;4.406;2023-07-31T19:40:48;1.08;;;0.98;;
25731;SDS011;13585;50.864;4.406;2023-07-31T19:43:13;1.25;;;0.93;;
25731;SDS011;13585;50.864;4.406;2023-07-31T19:45:39;3.28;;;1.10;;
25731;SDS011;13585;50.864;4.406;2023-07-31T19:48:04;1.45;;;1.00;;
25731;SDS011;13585;50.864;4.406;2023-07-31T19:50:30;1.52;;;1.00;;
25731;SDS011;13585;50.864;4.406;2023-07-31T19:52:56;1.65;;;1.10;;
25731;SDS011;13585;50.864;4.406;2023-07-31T19:55:21;1.13;;;1.02;;
25731;SDS011;13585;50.864;4.406;2023-07-31T19:57:47;2.25;;;1.20;;
25731;SDS011;13585;50.864;4.406;2023-07-31T20:00:13;3.95;;;1.08;;
25731;SDS011;13585;50.864;4.406;2023-07-31T20:02:39;1.27;;;0.90;;
25731;SDS011;13585;50.864;4.406;2023-07-31T20:07:30;1.38;;;0.90;;
25731;SDS011;13585;50.864;4.406;2023-07-31T20:09:56;1.30;;;0.90;;
25731;SDS011;13585;50.864;4.406;2023-07-31T20:12:23;1.77;;;0.90;;
25731;SDS011;13585;50.864;4.406;2023-07-31T20:14:51;1.27;;;0.98;;
25731;SDS011;13585;50.864;4.406;2023-07-31T20:17:20;2.03;;;1.00;;
25731;SDS011;13585;50.864;4.406;2023-07-31T20:19:55;1.80;;;1.20;;
25731;SDS011;13585;50.864;4.406;2023-07-31T20:23:01;1.75;;;0.90;;
25731;SDS011;13585;50.864;4.406;2023-07-31T20:25:39;2.33;;;1.00;;
25731;SDS011;13585;50.864;4.406;2023-07-31T20:30:46;1.65;;;1.27;;
25731;SDS011;13585;50.864;4.406;2023-07-31T20:33:11;2.28;;;0.98;;
25731;SDS011;13585;50.864;4.406;2023-07-31T20:35:43;2.05;;;0.80;;
25731;SDS011;13585;50.864;4.406;2023-07-31T20:38:11;1.23;;;0.88;;
25731;SDS011;13585;50.864;4.406;2023-07-31T20:40:38;3.13;;;1.10;;
25731;SDS011;13585;50.864;4.406;2023-07-31T20:43:03;1.38;;;1.00;;
25731;SDS011;13585;50.864;4.406;2023-07-31T20:45:29;1.33;;;1.10;;
25731;SDS011;13585;50.864;4.406;2023-07-31T20:47:56;1.30;;;0.98;;
25731;SDS011;13585;50.864;4.406;2023-07-31T20:50:24;2.00;;;0.90;;
25731;SDS011;13585;50.864;4.406;2023-07-31T20:52:50;1.33;;;0.82;;
25731;SDS011;13585;50.864;4.406;2023-07-31T20:55:18;1.10;;;1.00;;
25731;SDS011;13585;50.864;4.406;2023-07-31T20:57:44;2.10;;;1.00;;
25731;SDS011;13585;50.864;4.406;2023-07-31T21:00:09;1.33;;;1.00;;
25731;SDS011;13585;50.864;4.406;2023-07-31T21:02:39;1.17;;;0.85;;
25731;SDS011;13585;50.864;4.406;2023-07-31T21:05:05;1.88;;;0.93;;
25731;SDS011;13585;50.864;4.406;2023-07-31T21:07:31;1.02;;;0.90;;
25731;SDS011;13585;50.864;4.406;2023-07-31T21:09:56;1.25;;;1.00;;
25731;SDS011;13585;50.864;4.406;2023-07-31T21:12:22;0.65;;;0.65;;
25731;SDS011;13585;50.864;4.406;2023-07-31T21:17:43;1.00;;;0.80;;
25731;SDS011;13585;50.864;4.406;2023-07-31T21:20:09;1.73;;;0.93;;
25731;SDS011;13585;50.864;4.406;2023-07-31T21:22:35;1.67;;;0.90;;
25731;SDS011;13585;50.864;4.406;2023-07-31T21:25:01;2.58;;;0.70;;
25731;SDS011;13585;50.864;4.406;2023-07-31T21:27:27;1.15;;;0.82;;
25731;SDS011;13585;50.864;4.406;2023-07-31T21:29:53;1.27;;;0.90;;
25731;SDS011;13585;50.864;4.406;2023-07-31T21:32:19;1.25;;;0.80;;
25731;SDS011;13585;50.864;4.406;2023-07-31T21:34:44;1.55;;;0.80;;
25731;SDS011;13585;50.864;4.406;2023-07-31T21:37:10;0.85;;;0.80;;
25731;SDS011;13585;50.864;4.406;2023-07-31T21:39:39;1.00;;;0.90;;
25731;SDS011;13585;50.864;4.406;2023-07-31T21:42:05;1.25;;;1.00;;
25731;SDS011;13585;50.864;4.406;2023-07-31T21:44:32;1.10;;;0.82;;
25731;SDS011;13585;50.864;4.406;2023-07-31T21:46:57;0.70;;;0.70;;
25731;SDS011;13585;50.864;4.406;2023-07-31T21:49:23;1.10;;;0.80;;
25731;SDS011;13585;50.864;4.406;2023-07-31T21:51:48;0.85;;;0.73;;
25731;SDS011;13585;50.864;4.406;2023-07-31T21:54:14;1.00;;;0.80;;
25731;SDS011;13585;50.864;4.406;2023-07-31T21:56:39;1.65;;;0.95;;
25731;SDS011;13585;50.864;4.406;2023-07-31T21:59:05;1.05;;;0.80;;
25731;SDS011;13585;50.864;4.406;2023-07-31T22:01:31;0.98;;;0.75;;
25731;SDS011;13585;50.864;4.406;2023-07-31T22:03:57;1.75;;;0.90;;
25731;SDS011;13585;50.864;4.406;2023-07-31T22:06:22;1.90;;;1.00;;
25731;SDS011;13585;50.864;4.406;2023-07-31T22:08:48;1.52;;;1.00;;
25731;SDS011;13585;50.864;4.406;2023-07-31T22:11:14;1.48;;;0.80;;